Time;durP1;ratioP1;P1;durP2;ratioP2;P2;SDS_P1;SDS_P2;PMS_P1;PMS_P2;Temp;Humidity;BMP_temperature;BMP_pressure;BME280_temperature;BME280_humidity;BME280_pressure;Samples;Min_cycle;Max_cycle;Signal;HPM_P1;HPM_P2
2023/05/16 00:01:56;;;;;;;11.73;10.63;;;17.00;47.00;;;;;;5091665;28;20586;-53
2023/05/16 00:04:23;;;;;;;11.77;10.70;;;17.00;47.20;;;;;;5092275;28;20199;-53
2023/05/16 00:06:49;;;;;;;12.48;11.18;;;17.00;46.90;;;;;;5092631;28;20168;-53
2023/05/16 00:09:15;;;;;;;11.43;10.17;;;17.00;46.90;;;;;;5092700;28;20183;-54
2023/05/16 00:11:40;;;;;;;12.50;11.23;;;17.00;47.00;;;;;;5092824;28;20195;-54
2023/05/16 00:14:06;;;;;;;11.93;10.80;;;16.90;46.90;;;;;;5092680;28;20180;-54
2023/05/16 00:16:32;;;;;;;11.93;10.93;;;17.00;46.60;;;;;;5092869;28;20218;-53
2023/05/16 00:18:59;;;;;;;12.17;11.20;;;16.90;46.70;;;;;;5092839;28;20447;-54
2023/05/16 00:21:25;;;;;;;11.85;10.75;;;16.80;46.50;;;;;;5092293;28;20673;-53
2023/05/16 00:23:51;;;;;;;11.50;10.50;;;16.80;46.70;;;;;;5092598;28;20208;-54
2023/05/16 00:26:17;;;;;;;13.18;11.80;;;16.80;46.70;;;;;;5092490;28;20409;-54
2023/05/16 00:28:43;;;;;;;13.13;11.77;;;16.80;46.70;;;;;;5092565;28;20214;-54
2023/05/16 00:31:09;;;;;;;10.87;9.77;;;16.80;46.60;;;;;;5092207;28;20187;-54
2023/05/16 00:33:35;;;;;;;13.10;10.80;;;16.80;46.50;;;;;;5092637;28;20413;-53
2023/05/16 00:36:00;;;;;;;11.37;10.23;;;16.80;46.50;;;;;;5092649;28;20579;-54
2023/05/16 00:38:26;;;;;;;11.07;9.87;;;16.80;47.30;;;;;;5092430;28;20712;-53
2023/05/16 00:40:52;;;;;;;12.87;11.67;;;16.70;46.50;;;;;;5092080;28;20191;-53
2023/05/16 00:43:18;;;;;;;13.57;12.35;;;16.70;46.40;;;;;;5092556;28;20175;-54
2023/05/16 00:45:44;;;;;;;14.53;11.97;;;16.70;46.40;;;;;;5092340;28;20699;-53
2023/05/16 00:48:12;;;;;;;12.40;11.20;;;16.70;46.50;;;;;;5092505;28;20653;-53
2023/05/16 00:50:38;;;;;;;12.80;11.50;;;16.60;46.40;;;;;;5091913;28;20410;-54
2023/05/16 00:53:04;;;;;;;10.90;9.80;;;16.60;46.50;;;;;;5092393;28;20557;-53
2023/05/16 00:55:31;;;;;;;12.10;10.90;;;16.50;46.60;;;;;;5092178;28;20281;-54
2023/05/16 00:57:58;;;;;;;12.05;10.95;;;16.50;46.50;;;;;;5092174;28;20180;-54
2023/05/16 01:00:24;;;;;;;13.18;11.60;;;16.50;47.30;;;;;;5091694;28;20660;-54
2023/05/16 01:02:52;;;;;;;11.90;10.70;;;16.50;46.70;;;;;;5092041;28;20199;-53
2023/05/16 01:05:21;;;;;;;12.73;11.38;;;16.50;46.80;;;;;;5092104;28;20219;-54
2023/05/16 01:07:47;;;;;;;11.05;9.98;;;16.40;46.70;;;;;;5091959;28;20187;-54
2023/05/16 01:10:13;;;;;;;11.23;10.33;;;16.40;46.80;;;;;;5091705;28;20212;-53
2023/05/16 01:13:06;;;;;;;12.40;11.20;;;16.40;46.70;;;;;;5094265;28;20894;-54
2023/05/16 01:15:48;;;;;;;10.98;9.93;;;16.40;46.70;;;;;;5095073;28;20413;-54
2023/05/16 01:18:35;;;;;;;11.95;10.75;;;16.30;46.80;;;;;;5096274;28;20201;-53
2023/05/16 01:21:08;;;;;;;11.27;10.27;;;16.30;46.80;;;;;;5095822;28;20306;-54
2023/05/16 01:23:56;;;;;;;13.75;11.02;;;16.30;46.90;;;;;;5096163;28;20176;-54
2023/05/16 01:26:26;;;;;;;12.48;11.30;;;16.20;46.70;;;;;;5096296;28;20171;-54
2023/05/16 01:28:53;;;;;;;16.02;11.20;;;16.20;46.60;;;;;;5096201;28;20176;-54
2023/05/16 01:31:20;;;;;;;14.13;12.68;;;16.10;46.70;;;;;;5095770;28;20188;-55
2023/05/16 01:33:46;;;;;;;14.65;13.27;;;16.10;46.80;;;;;;5095931;28;20183;-55
2023/05/16 01:36:23;;;;;;;13.43;12.10;;;16.10;46.70;;;;;;5096203;28;20163;-56
2023/05/16 01:38:58;;;;;;;13.32;11.98;;;16.10;46.50;;;;;;5095918;28;20171;-54
2023/05/16 01:41:39;;;;;;;12.95;11.65;;;16.10;46.70;;;;;;5095580;28;20187;-55
2023/05/16 01:44:13;;;;;;;12.45;9.77;;;16.00;46.60;;;;;;5095500;28;20168;-54
2023/05/16 01:46:44;;;;;;;12.43;11.13;;;16.00;46.60;;;;;;5095683;28;20171;-55
2023/05/16 01:49:20;;;;;;;12.98;11.50;;;16.00;46.70;;;;;;5095483;28;20178;-55
2023/05/16 01:51:53;;;;;;;11.15;10.15;;;16.00;46.80;;;;;;5095479;28;20188;-55
2023/05/16 01:54:20;;;;;;;11.90;10.75;;;16.00;46.80;;;;;;5095508;28;20261;-55
2023/05/16 01:56:56;;;;;;;13.00;11.80;;;15.90;46.50;;;;;;5095498;28;20573;-55
2023/05/16 01:59:23;;;;;;;14.18;12.77;;;15.80;46.40;;;;;;5095242;28;20182;-55
2023/05/16 02:01:53;;;;;;;12.30;11.10;;;15.80;46.60;;;;;;5095490;28;20237;-54
2023/05/16 02:04:18;;;;;;;17.52;12.95;;;15.80;46.80;;;;;;5095253;28;20204;-55
2023/05/16 02:06:45;;;;;;;12.70;11.47;;;15.80;46.80;;;;;;5095373;28;20668;-55
2023/05/16 02:09:10;;;;;;;15.68;11.25;;;15.80;46.90;;;;;;5095129;28;20164;-54
2023/05/16 02:11:36;;;;;;;12.27;11.00;;;15.70;47.00;;;;;;5095161;28;20191;-55
2023/05/16 02:14:02;;;;;;;13.00;11.67;;;15.70;46.80;;;;;;5093885;28;20402;-55
2023/05/16 02:16:30;;;;;;;13.63;12.33;;;15.70;47.00;;;;;;5095155;28;20192;-55
2023/05/16 02:18:56;;;;;;;15.48;12.73;;;15.70;47.10;;;;;;5095101;28;20412;-55
2023/05/16 02:21:22;;;;;;;13.90;12.43;;;15.70;47.10;;;;;;5094738;28;20179;-55
2023/05/16 02:23:47;;;;;;;12.80;11.40;;;15.70;47.10;;;;;;5092963;28;20520;-54
2023/05/16 02:26:13;;;;;;;14.43;12.97;;;15.80;47.20;;;;;;5094962;28;20215;-55
2023/05/16 02:28:39;;;;;;;14.33;12.80;;;15.80;47.30;;;;;;5095028;28;20172;-55
2023/05/16 02:31:05;;;;;;;12.98;11.80;;;15.80;47.30;;;;;;5094592;28;20852;-55
2023/05/16 02:33:31;;;;;;;13.70;12.40;;;15.80;47.30;;;;;;5095007;28;20180;-55
2023/05/16 02:35:57;;;;;;;14.13;12.73;;;15.80;47.30;;;;;;5094670;28;20438;-55
2023/05/16 02:38:22;;;;;;;12.90;11.60;;;15.80;47.40;;;;;;5094547;28;20203;-55
2023/05/16 02:40:49;;;;;;;15.33;12.00;;;15.90;47.60;;;;;;5094460;28;20192;-54
2023/05/16 02:43:15;;;;;;;17.80;13.02;;;15.80;47.60;;;;;;5094698;28;20187;-54
2023/05/16 02:45:41;;;;;;;13.73;12.47;;;15.80;47.60;;;;;;5094333;28;20204;-54
2023/05/16 02:48:07;;;;;;;12.67;11.40;;;15.80;47.60;;;;;;5094522;28;20425;-53
2023/05/16 02:50:33;;;;;;;14.60;13.03;;;15.90;47.60;;;;;;5093977;28;20432;-54
2023/05/16 02:53:01;;;;;;;13.40;12.07;;;15.90;47.80;;;;;;5094405;28;20440;-54
2023/05/16 02:55:27;;;;;;;15.27;13.77;;;15.90;47.90;;;;;;5094264;28;20168;-54
2023/05/16 02:57:53;;;;;;;13.70;12.45;;;16.00;48.00;;;;;;5092906;28;20176;-53
2023/05/16 03:00:19;;;;;;;13.07;11.87;;;16.00;48.10;;;;;;5093850;28;20196;-54
2023/05/16 03:02:45;;;;;;;12.75;11.45;;;16.00;48.10;;;;;;5094006;28;20413;-54
2023/05/16 03:05:11;;;;;;;13.43;12.13;;;16.10;48.10;;;;;;5094185;28;20545;-53
2023/05/16 03:07:38;;;;;;;15.33;13.80;;;16.10;48.10;;;;;;5094065;28;20263;-54
2023/05/16 03:10:04;;;;;;;15.13;13.38;;;16.10;48.20;;;;;;5093750;28;20454;-53
2023/05/16 03:12:30;;;;;;;13.70;12.40;;;16.20;47.80;;;;;;5094051;28;20212;-53
2023/05/16 03:14:56;;;;;;;13.67;12.27;;;16.20;47.80;;;;;;5092676;28;20615;-54
2023/05/16 03:17:22;;;;;;;15.07;13.67;;;16.20;48.20;;;;;;5093918;28;20409;-53
2023/05/16 03:19:48;;;;;;;14.13;12.83;;;16.10;48.10;;;;;;5093355;28;20406;-54
2023/05/16 03:22:13;;;;;;;14.30;12.80;;;16.20;48.50;;;;;;5093782;28;20210;-54
2023/05/16 03:24:39;;;;;;;16.13;13.77;;;16.20;48.40;;;;;;5093658;28;20453;-53
2023/05/16 03:27:05;;;;;;;14.60;13.20;;;16.30;48.60;;;;;;5093820;28;20409;-54
2023/05/16 03:29:31;;;;;;;16.27;14.70;;;16.30;48.70;;;;;;5093377;28;20646;-54
2023/05/16 03:31:57;;;;;;;14.53;13.03;;;16.30;48.70;;;;;;5092248;28;20229;-54
2023/05/16 03:34:23;;;;;;;16.17;14.57;;;16.30;48.80;;;;;;5092429;28;20224;-53
2023/05/16 03:36:49;;;;;;;20.30;15.60;;;16.40;48.70;;;;;;5093572;28;20245;-54
2023/05/16 03:39:17;;;;;;;15.90;14.20;;;16.40;48.70;;;;;;5093328;28;20586;-53
2023/05/16 03:41:43;;;;;;;17.00;15.38;;;16.50;48.90;;;;;;5093317;28;20500;-53
2023/05/16 03:44:09;;;;;;;18.87;17.03;;;16.50;48.80;;;;;;5093362;28;20180;-53
2023/05/16 03:46:35;;;;;;;17.00;15.30;;;16.50;48.80;;;;;;5093263;28;20405;-53
2023/05/16 03:49:01;;;;;;;18.08;16.27;;;16.60;48.60;;;;;;5093179;28;20168;-53
2023/05/16 03:51:27;;;;;;;21.08;16.13;;;16.70;48.40;;;;;;5093360;28;20195;-53
2023/05/16 03:53:53;;;;;;;18.13;15.43;;;16.70;48.50;;;;;;5093179;28;20190;-55
2023/05/16 03:56:20;;;;;;;24.17;17.00;;;16.70;48.30;;;;;;5093370;28;20176;-52
2023/05/16 03:58:46;;;;;;;17.38;15.70;;;16.80;48.40;;;;;;5093242;28;20180;-52
2023/05/16 04:01:13;;;;;;;17.75;15.88;;;16.80;48.30;;;;;;5092640;28;20567;-55
2023/05/16 04:03:38;;;;;;;16.45;14.73;;;16.90;48.40;;;;;;5092597;28;20187;-54
2023/05/16 04:06:05;;;;;;;19.27;15.87;;;16.90;48.40;;;;;;5092706;28;20199;-52
2023/05/16 04:08:31;;;;;;;17.02;14.85;;;16.90;48.30;;;;;;5092797;28;20172;-54
2023/05/16 04:10:57;;;;;;;17.70;15.67;;;17.00;48.20;;;;;;5092431;28;20314;-52
2023/05/16 04:13:22;;;;;;;18.93;17.03;;;17.00;48.20;;;;;;5092789;28;20196;-54
2023/05/16 04:15:48;;;;;;;27.87;15.27;;;17.00;48.10;;;;;;5092951;28;20637;-52
2023/05/16 04:18:14;;;;;;;16.80;15.00;;;17.00;48.00;;;;;;5092537;28;20168;-52
2023/05/16 04:20:41;;;;;;;17.77;15.87;;;17.00;48.10;;;;;;5092570;28;20269;-54
2023/05/16 04:23:09;;;;;;;18.88;15.90;;;17.10;48.10;;;;;;5092698;28;20176;-55
2023/05/16 04:25:35;;;;;;;17.08;15.27;;;17.10;47.90;;;;;;5092412;28;20207;-52
2023/05/16 04:28:01;;;;;;;18.90;16.80;;;17.10;48.00;;;;;;5092420;28;20172;-54
2023/05/16 04:30:27;;;;;;;17.70;15.80;;;17.10;48.00;;;;;;5092090;28;20437;-53
2023/05/16 04:32:52;;;;;;;18.50;16.80;;;17.10;47.80;;;;;;5092199;28;20259;-52
2023/05/16 04:35:18;;;;;;;18.77;15.87;;;17.10;47.80;;;;;;5092361;28;20176;-52
2023/05/16 04:37:44;;;;;;;18.87;16.77;;;17.00;47.70;;;;;;5092295;28;20191;-54
2023/05/16 04:40:11;;;;;;;18.57;15.70;;;17.00;47.60;;;;;;5092034;28;20199;-54
2023/05/16 04:42:37;;;;;;;20.27;16.83;;;17.00;47.80;;;;;;5092584;28;20483;-52
2023/05/16 04:45:05;;;;;;;16.30;14.60;;;17.00;47.70;;;;;;5092133;28;20669;-54
2023/05/16 04:47:31;;;;;;;23.42;16.38;;;17.00;47.60;;;;;;5091844;28;20406;-52
2023/05/16 04:49:57;;;;;;;19.00;16.30;;;17.00;47.30;;;;;;5092003;28;20314;-53
2023/05/16 04:52:23;;;;;;;17.70;15.90;;;17.00;47.20;;;;;;5092196;28;20172;-52
2023/05/16 04:54:51;;;;;;;17.10;15.40;;;17.00;47.10;;;;;;5092193;28;20198;-52
2023/05/16 04:57:17;;;;;;;16.75;15.05;;;17.00;47.30;;;;;;5092113;28;20381;-53
2023/05/16 04:59:43;;;;;;;20.90;17.13;;;16.90;46.60;;;;;;5091796;28;20172;-53
2023/05/16 05:02:08;;;;;;;20.60;16.57;;;16.90;47.10;;;;;;5092006;28;20521;-52
2023/05/16 05:04:34;;;;;;;18.20;16.40;;;16.90;46.90;;;;;;5092112;28;20200;-55
2023/05/16 05:07:00;;;;;;;19.70;17.02;;;16.80;46.90;;;;;;5092008;28;20530;-52
2023/05/16 05:09:26;;;;;;;19.17;17.20;;;16.70;47.10;;;;;;5091783;28;20184;-52
2023/05/16 05:11:52;;;;;;;19.33;17.23;;;16.70;47.40;;;;;;5092020;28;20472;-52
2023/05/16 05:14:18;;;;;;;19.10;17.10;;;16.70;47.40;;;;;;5091868;28;20176;-53
2023/05/16 05:16:44;;;;;;;19.70;17.73;;;16.70;47.30;;;;;;5091840;28;20804;-55
2023/05/16 05:19:09;;;;;;;19.92;17.80;;;16.70;48.20;;;;;;5091825;28;20176;-54
2023/05/16 05:21:35;;;;;;;20.43;18.17;;;16.70;47.50;;;;;;5091686;28;20218;-52
2023/05/16 05:24:03;;;;;;;22.67;19.00;;;16.70;47.50;;;;;;5092050;28;20229;-54
2023/05/16 05:26:29;;;;;;;18.95;16.38;;;16.40;46.10;;;;;;5091745;28;20182;-53
2023/05/16 05:28:55;;;;;;;21.23;18.97;;;16.30;46.60;;;;;;5091817;28;20534;-52
2023/05/16 05:31:20;;;;;;;20.50;18.40;;;16.20;47.20;;;;;;5091477;28;20810;-56
2023/05/16 05:33:46;;;;;;;20.03;17.80;;;16.20;47.10;;;;;;5092105;28;20168;-53
2023/05/16 05:36:12;;;;;;;22.13;19.77;;;16.10;47.50;;;;;;5091797;28;20806;-53
2023/05/16 05:38:37;;;;;;;22.13;19.73;;;16.10;47.60;;;;;;5091998;28;20184;-54
2023/05/16 05:41:04;;;;;;;26.63;22.97;;;16.10;47.60;;;;;;5091766;28;20724;-52
2023/05/16 05:43:30;;;;;;;25.67;23.08;;;16.10;47.60;;;;;;5091713;28;20160;-53
2023/05/16 05:45:56;;;;;;;21.90;19.73;;;16.10;47.70;;;;;;5091577;28;20207;-52
2023/05/16 05:48:22;;;;;;;20.03;17.87;;;16.10;47.80;;;;;;5091662;28;20448;-54
2023/05/16 05:50:47;;;;;;;23.10;19.77;;;16.20;47.60;;;;;;5091589;28;20422;-53
2023/05/16 05:53:13;;;;;;;21.50;19.13;;;16.30;47.70;;;;;;5091720;28;20164;-52
2023/05/16 05:55:41;;;;;;;23.10;20.77;;;16.30;47.40;;;;;;5091686;28;20429;-52
2023/05/16 05:58:06;;;;;;;20.73;17.98;;;16.30;47.30;;;;;;5092609;28;20175;-55
2023/05/16 06:00:32;;;;;;;23.20;19.80;;;16.30;47.50;;;;;;5094983;28;20210;-51
2023/05/16 06:02:58;;;;;;;23.80;19.20;;;16.30;47.40;;;;;;5095271;28;20440;-53
2023/05/16 06:05:24;;;;;;;22.73;20.07;;;16.30;47.20;;;;;;5095279;28;20200;-55
2023/05/16 06:07:50;;;;;;;23.73;21.00;;;16.30;47.20;;;;;;5095230;28;20650;-53
2023/05/16 06:10:15;;;;;;;25.53;20.17;;;16.30;47.30;;;;;;5094877;28;20446;-54
2023/05/16 06:12:41;;;;;;;25.40;19.90;;;16.30;46.70;;;;;;5094924;28;20572;-55
2023/05/16 06:15:09;;;;;;;26.37;21.33;;;16.30;46.70;;;;;;5095280;28;20183;-53
2023/05/16 06:17:35;;;;;;;23.40;20.48;;;16.30;46.60;;;;;;5095023;28;20175;-53
2023/05/16 06:20:00;;;;;;;22.10;19.80;;;16.20;46.30;;;;;;5094593;28;20545;-55
2023/05/16 06:22:26;;;;;;;23.60;21.00;;;16.20;46.10;;;;;;5094870;28;20197;-53
2023/05/16 06:24:52;;;;;;;24.47;21.73;;;16.10;46.70;;;;;;5094926;28;20468;-52
2023/05/16 06:27:18;;;;;;;27.70;22.90;;;16.00;46.50;;;;;;5094764;28;20746;-55
2023/05/16 06:29:43;;;;;;;33.30;26.37;;;16.00;46.90;;;;;;5094440;28;20187;-53
2023/05/16 06:32:09;;;;;;;30.77;25.83;;;15.80;46.30;;;;;;5094639;28;20526;-53
2023/05/16 06:34:36;;;;;;;31.97;28.33;;;15.70;47.10;;;;;;5094735;28;20218;-52
2023/05/16 06:37:02;;;;;;;33.28;25.40;;;15.60;46.70;;;;;;5094577;28;20908;-52
2023/05/16 06:39:28;;;;;;;35.17;26.98;;;15.60;47.00;;;;;;5094315;28;20549;-55
2023/05/16 06:41:54;;;;;;;34.20;26.10;;;15.50;47.20;;;;;;5093112;28;20206;-54
2023/05/16 06:44:20;;;;;;;33.67;25.63;;;15.50;47.20;;;;;;5094629;28;20175;-52
2023/05/16 06:46:46;;;;;;;36.60;30.65;;;15.60;47.00;;;;;;5094680;28;20589;-51
2023/05/16 06:49:11;;;;;;;34.50;28.80;;;15.60;47.00;;;;;;5094369;28;20176;-56
2023/05/16 06:51:37;;;;;;;35.57;28.53;;;15.60;47.10;;;;;;5094528;28;20282;-55
2023/05/16 06:54:03;;;;;;;34.13;27.43;;;15.60;47.20;;;;;;5094308;28;20167;-52
2023/05/16 06:56:30;;;;;;;36.07;26.40;;;15.70;47.20;;;;;;5094151;28;20213;-54
2023/05/16 06:58:56;;;;;;;31.13;24.80;;;15.80;47.00;;;;;;5094118;28;20409;-54
2023/05/16 07:01:21;;;;;;;31.30;27.10;;;15.80;46.60;;;;;;5094021;28;20192;-52
2023/05/16 07:03:47;;;;;;;33.17;25.97;;;15.90;46.80;;;;;;5094146;28;20164;-53
2023/05/16 07:06:13;;;;;;;31.27;25.60;;;15.90;46.40;;;;;;5094045;28;20204;-54
2023/05/16 07:08:39;;;;;;;27.60;23.83;;;15.90;46.40;;;;;;5093982;28;20214;-53
2023/05/16 07:11:04;;;;;;;31.17;23.30;;;15.90;46.50;;;;;;5093604;28;20264;-52
2023/05/16 07:13:30;;;;;;;30.90;23.50;;;15.90;46.40;;;;;;5094119;28;20638;-54
2023/05/16 07:15:56;;;;;;;25.93;21.63;;;15.80;46.10;;;;;;5094022;28;20612;-54
2023/05/16 07:18:21;;;;;;;25.60;21.80;;;15.70;46.30;;;;;;5093974;28;20202;-54
2023/05/16 07:20:47;;;;;;;25.07;21.30;;;15.70;46.10;;;;;;5093892;28;20195;-52
2023/05/16 07:23:13;;;;;;;23.30;18.80;;;15.50;46.30;;;;;;5093827;28;20176;-52
2023/05/16 07:25:39;;;;;;;24.03;19.37;;;15.40;46.70;;;;;;5093610;28;20692;-53
2023/05/16 07:28:05;;;;;;;23.00;18.87;;;15.40;46.40;;;;;;5093787;28;20175;-54
2023/05/16 07:30:30;;;;;;;28.60;19.13;;;15.30;46.60;;;;;;5093277;28;20418;-53
2023/05/16 07:32:57;;;;;;;25.03;20.40;;;15.30;46.80;;;;;;5093675;28;20400;-55
2023/05/16 07:35:22;;;;;;;23.13;19.90;;;15.30;46.60;;;;;;5093537;28;20180;-54
2023/05/16 07:37:48;;;;;;;22.70;20.40;;;15.30;47.10;;;;;;5093545;28;20237;-52
2023/05/16 07:40:14;;;;;;;22.05;18.23;;;15.40;47.30;;;;;;5093109;28;20196;-54
2023/05/16 07:42:40;;;;;;;21.63;18.53;;;15.50;47.20;;;;;;5093692;28;20537;-53
2023/05/16 07:45:07;;;;;;;22.33;17.87;;;15.60;46.30;;;;;;5093597;28;20227;-52
2023/05/16 07:47:32;;;;;;;19.55;15.70;;;15.40;45.80;;;;;;5093393;28;20164;-54
2023/05/16 07:49:58;;;;;;;21.43;17.87;;;15.40;46.50;;;;;;5093086;28;20293;-54
2023/05/16 07:52:24;;;;;;;23.23;14.63;;;15.30;46.70;;;;;;5093566;28;20418;-54
2023/05/16 07:54:50;;;;;;;19.47;15.97;;;15.30;46.80;;;;;;5093069;28;20168;-54
2023/05/16 07:57:16;;;;;;;19.07;15.63;;;15.40;46.90;;;;;;5093197;28;20421;-54
2023/05/16 07:59:42;;;;;;;17.43;15.53;;;15.40;46.80;;;;;;5093164;28;20178;-56
2023/05/16 08:02:09;;;;;;;19.40;15.38;;;15.50;47.20;;;;;;5093335;28;20497;-54
2023/05/16 08:04:35;;;;;;;18.33;13.85;;;15.40;46.80;;;;;;5092889;28;20286;-54
2023/05/16 08:07:01;;;;;;;15.85;14.25;;;15.50;46.60;;;;;;5093070;28;20168;-54
2023/05/16 08:09:26;;;;;;;15.73;14.07;;;15.50;46.60;;;;;;5092472;28;20195;-53
2023/05/16 08:11:52;;;;;;;14.73;13.13;;;15.50;46.70;;;;;;5093138;28;20875;-53
2023/05/16 08:14:18;;;;;;;18.13;15.90;;;15.50;46.80;;;;;;5092928;28;20183;-53
2023/05/16 08:16:45;;;;;;;19.88;13.65;;;15.60;46.70;;;;;;5092910;28;20200;-53
2023/05/16 08:19:10;;;;;;;16.47;13.70;;;15.60;46.70;;;;;;5092658;28;20569;-53
2023/05/16 08:21:37;;;;;;;18.17;13.90;;;15.60;46.30;;;;;;5091983;28;20233;-53
2023/05/16 08:24:04;;;;;;;14.27;12.82;;;15.70;46.50;;;;;;5091195;28;20168;-54
2023/05/16 08:26:31;;;;;;;14.25;12.75;;;15.70;46.30;;;;;;5092769;28;20191;-53
2023/05/16 08:28:56;;;;;;;14.05;12.50;;;15.60;45.80;;;;;;5092528;28;20168;-53
2023/05/16 08:31:22;;;;;;;16.43;14.73;;;15.50;46.10;;;;;;5092462;28;20278;-54
2023/05/16 08:33:48;;;;;;;14.70;12.20;;;15.50;46.40;;;;;;5092472;28;20172;-54
2023/05/16 08:36:14;;;;;;;18.63;14.73;;;15.60;46.80;;;;;;5092494;28;20689;-53
2023/05/16 08:38:40;;;;;;;16.33;12.68;;;15.70;46.80;;;;;;5092521;28;20183;-54
2023/05/16 08:41:06;;;;;;;13.53;12.13;;;15.70;46.90;;;;;;5091995;28;20204;-53
2023/05/16 08:43:34;;;;;;;15.67;13.97;;;15.80;46.90;;;;;;5092276;28;20436;-53
2023/05/16 08:45:59;;;;;;;17.58;14.18;;;15.90;46.70;;;;;;5092122;28;20542;-54
2023/05/16 08:48:27;;;;;;;14.70;13.07;;;15.90;46.40;;;;;;5092573;28;20194;-53
2023/05/16 08:50:53;;;;;;;15.77;13.18;;;15.90;46.50;;;;;;5091974;28;20418;-52
2023/05/16 08:53:21;;;;;;;15.50;13.10;;;15.90;46.50;;;;;;5092136;28;20186;-54
2023/05/16 08:55:50;;;;;;;14.60;12.85;;;16.00;46.50;;;;;;5092447;28;20406;-54
2023/05/16 08:58:16;;;;;;;17.92;13.00;;;16.10;46.60;;;;;;5092365;28;20176;-54
2023/05/16 09:00:43;;;;;;;15.18;12.15;;;16.10;46.70;;;;;;5091847;28;20195;-54
2023/05/16 09:03:08;;;;;;;14.32;11.75;;;16.10;46.60;;;;;;5092022;28;20183;-52
2023/05/16 09:05:34;;;;;;;14.47;12.10;;;16.10;46.10;;;;;;5092007;28;20192;-54
2023/05/16 09:08:00;;;;;;;13.00;11.70;;;16.10;45.60;;;;;;5092299;28;20178;-54
2023/05/16 09:10:26;;;;;;;13.40;11.93;;;16.10;46.00;;;;;;5091634;28;20207;-51
2023/05/16 09:12:52;;;;;;;14.13;12.63;;;16.10;46.00;;;;;;5092314;28;20402;-52
2023/05/16 09:15:21;;;;;;;13.23;11.57;;;16.10;46.10;;;;;;5092063;28;20409;-54
2023/05/16 09:17:47;;;;;;;14.02;12.63;;;16.20;46.30;;;;;;5092305;28;20168;-54
2023/05/16 09:20:18;;;;;;;14.30;11.63;;;16.20;45.80;;;;;;5091634;28;20192;-51
2023/05/16 09:22:52;;;;;;;15.00;13.43;;;16.10;45.30;;;;;;5092254;28;20410;-54
2023/05/16 09:25:18;;;;;;;16.13;12.82;;;16.00;45.50;;;;;;5091908;28;20238;-51
2023/05/16 09:27:50;;;;;;;15.45;13.38;;;16.00;45.60;;;;;;5092120;28;20168;-51
2023/05/16 09:30:15;;;;;;;16.90;12.40;;;16.10;45.90;;;;;;5091942;28;20256;-54
2023/05/16 09:32:44;;;;;;;16.97;13.20;;;16.00;45.80;;;;;;5092388;28;20597;-51
2023/05/16 09:35:18;;;;;;;13.80;12.40;;;16.10;46.00;;;;;;5096121;28;20183;-52
2023/05/16 09:37:46;;;;;;;12.98;11.75;;;16.20;45.90;;;;;;5095990;28;20229;-54
2023/05/16 09:40:12;;;;;;;13.27;10.73;;;16.20;46.00;;;;;;5095686;28;20530;-54
2023/05/16 09:42:38;;;;;;;11.48;10.27;;;16.20;45.60;;;;;;5095713;28;20270;-52
2023/05/16 09:45:04;;;;;;;12.50;11.32;;;16.20;45.20;;;;;;5095532;28;20270;-55
2023/05/16 09:47:30;;;;;;;15.50;11.25;;;16.20;45.10;;;;;;5095625;28;20226;-55
2023/05/16 09:49:56;;;;;;;14.17;10.53;;;16.20;45.50;;;;;;5095316;28;20168;-54
2023/05/16 09:52:25;;;;;;;11.23;9.80;;;16.30;45.60;;;;;;5095554;28;20425;-52
2023/05/16 09:54:51;;;;;;;12.23;11.00;;;16.30;45.70;;;;;;5095465;28;20429;-54
2023/05/16 09:57:18;;;;;;;11.03;9.37;;;16.30;45.30;;;;;;5095554;28;20171;-54
2023/05/16 09:59:44;;;;;;;13.68;10.23;;;16.40;45.50;;;;;;5094975;28;20180;-52
2023/05/16 10:02:12;;;;;;;11.48;10.15;;;16.40;45.60;;;;;;5095614;28;20187;-52
2023/05/16 10:04:38;;;;;;;16.58;10.18;;;16.40;45.10;;;;;;5095252;28;20192;-55
2023/05/16 10:07:05;;;;;;;10.50;9.50;;;16.40;45.40;;;;;;5095524;28;20175;-52
2023/05/16 10:09:33;;;;;;;12.43;11.13;;;16.40;45.30;;;;;;5094897;28;20939;-52
2023/05/16 10:12:05;;;;;;;13.70;9.45;;;16.40;45.40;;;;;;5095008;28;20196;-54
2023/05/16 10:14:45;;;;;;;12.13;10.15;;;16.40;45.60;;;;;;5094949;28;20180;-52
2023/05/16 10:17:13;;;;;;;12.13;10.75;;;16.50;45.40;;;;;;5095206;28;20180;-54
2023/05/16 10:19:39;;;;;;;13.43;10.73;;;16.50;45.40;;;;;;5094844;28;20179;-54
2023/05/16 10:22:07;;;;;;;12.88;11.68;;;16.60;45.40;;;;;;5095135;28;20203;-51
2023/05/16 10:24:53;;;;;;;14.05;11.32;;;16.60;44.70;;;;;;5094777;28;20199;-54
2023/05/16 10:27:20;;;;;;;11.93;10.80;;;16.60;44.80;;;;;;5094843;28;20172;-54
2023/05/16 10:29:45;;;;;;;16.52;11.52;;;16.70;44.70;;;;;;5094403;28;20167;-53
2023/05/16 10:32:12;;;;;;;18.20;10.93;;;16.70;44.90;;;;;;5094996;28;20649;-54
2023/05/16 10:34:39;;;;;;;11.68;10.45;;;16.70;45.00;;;;;;5094843;28;20832;-54
2023/05/16 10:37:06;;;;;;;12.40;11.15;;;16.80;44.80;;;;;;5094632;28;20182;-54
2023/05/16 10:39:32;;;;;;;11.13;9.75;;;16.80;44.70;;;;;;5094455;28;20256;-51
2023/05/16 10:41:58;;;;;;;10.05;8.93;;;16.80;44.10;;;;;;5094462;28;20192;-54
2023/05/16 10:44:25;;;;;;;22.23;20.08;;;16.70;44.10;;;;;;5093951;28;20183;-54
2023/05/16 10:46:50;;;;;;;13.82;10.05;;;16.60;43.60;;;;;;5094739;28;20172;-52
2023/05/16 10:49:23;;;;;;;10.83;9.70;;;16.60;44.00;;;;;;5094235;28;20218;-54
2023/05/16 10:52:09;;;;;;;9.40;8.38;;;16.50;44.00;;;;;;5094315;28;20746;-54
2023/05/16 10:54:39;;;;;;;12.48;8.50;;;16.50;44.20;;;;;;5094207;28;20702;-51
2023/05/16 10:57:20;;;;;;;10.75;8.80;;;16.50;44.70;;;;;;5094483;28;20168;-53
2023/05/16 10:59:48;;;;;;;10.05;9.02;;;16.60;44.80;;;;;;5093999;28;20168;-52
2023/05/16 11:02:40;;;;;;;11.75;9.07;;;16.70;44.80;;;;;;5094179;28;20657;-52
2023/05/16 11:05:11;;;;;;;11.55;9.07;;;16.80;44.40;;;;;;5092892;28;20214;-54
2023/05/16 11:07:37;;;;;;;15.10;8.88;;;16.90;44.30;;;;;;5094295;28;20172;-51
2023/05/16 11:10:09;;;;;;;9.60;8.60;;;16.90;44.30;;;;;;5093741;28;20222;-54
2023/05/16 11:12:54;;;;;;;9.77;7.22;;;17.10;44.50;;;;;;5092787;28;20172;-52
2023/05/16 11:15:27;;;;;;;8.13;7.32;;;17.20;44.30;;;;;;5094138;28;20184;-52
2023/05/16 11:18:12;;;;;;;7.65;6.95;;;17.30;44.50;;;;;;5092951;28;20172;-54
2023/05/16 11:20:39;;;;;;;8.07;7.30;;;17.50;44.30;;;;;;5093577;28;20221;-54
2023/05/16 11:23:18;;;;;;;7.97;7.22;;;17.50;43.90;;;;;;5093749;28;20663;-54
2023/05/16 11:25:45;;;;;;;7.93;7.13;;;17.60;43.30;;;;;;5093671;28;20246;-54
2023/05/16 11:28:13;;;;;;;9.68;7.80;;;17.60;43.20;;;;;;5093756;28;20168;-54
2023/05/16 11:30:44;;;;;;;9.20;6.88;;;17.60;43.10;;;;;;5093303;28;20736;-52
2023/05/16 11:33:12;;;;;;;8.55;7.75;;;17.60;42.90;;;;;;5093776;28;20750;-54
2023/05/16 11:35:37;;;;;;;8.50;7.05;;;17.60;42.70;;;;;;5093473;28;20180;-51
2023/05/16 11:38:03;;;;;;;10.17;7.70;;;17.60;42.90;;;;;;5093466;28;20171;-52
2023/05/16 11:40:29;;;;;;;8.77;6.97;;;17.70;43.10;;;;;;5093396;28;20192;-54
2023/05/16 11:43:02;;;;;;;10.73;7.50;;;17.80;43.40;;;;;;5093374;28;20410;-52
2023/05/16 11:45:28;;;;;;;8.80;7.50;;;17.90;43.40;;;;;;5093589;28;20481;-54
2023/05/16 11:47:54;;;;;;;7.33;6.70;;;18.10;43.00;;;;;;5093435;28;20592;-51
2023/05/16 11:50:22;;;;;;;7.93;7.07;;;18.30;42.50;;;;;;5092938;28;20414;-55
2023/05/16 11:52:55;;;;;;;11.43;6.28;;;18.40;42.60;;;;;;5093408;28;20409;-54
2023/05/16 11:55:23;;;;;;;9.60;6.35;;;18.60;41.80;;;;;;5092393;28;20180;-53
2023/05/16 11:57:52;;;;;;;7.63;6.38;;;18.60;41.00;;;;;;5093490;28;20580;-52
2023/05/16 12:00:20;;;;;;;7.53;6.72;;;18.60;41.70;;;;;;5092825;28;20615;-55
2023/05/16 12:02:48;;;;;;;8.32;7.40;;;18.60;41.50;;;;;;5092905;28;20176;-54
2023/05/16 12:05:15;;;;;;;11.13;6.22;;;18.60;40.40;;;;;;5093089;28;20553;-52
2023/05/16 12:07:43;;;;;;;8.32;6.63;;;18.60;40.60;;;;;;5093160;28;20172;-51
2023/05/16 12:10:11;;;;;;;7.25;6.55;;;18.70;41.20;;;;;;5092480;28;20208;-54
2023/05/16 12:12:39;;;;;;;10.68;7.50;;;18.70;41.40;;;;;;5092720;28;20259;-54
2023/05/16 12:15:07;;;;;;;11.25;7.30;;;18.70;41.30;;;;;;5092753;28;20188;-51
2023/05/16 12:17:34;;;;;;;6.82;6.05;;;18.70;41.10;;;;;;5092647;28;20798;-54
2023/05/16 12:20:01;;;;;;;6.78;6.03;;;18.70;40.80;;;;;;5092396;28;20603;-54
2023/05/16 12:22:27;;;;;;;6.53;5.90;;;18.80;41.30;;;;;;5092797;28;20180;-52
2023/05/16 12:24:52;;;;;;;6.70;6.10;;;18.80;41.20;;;;;;5092536;28;20298;-54
2023/05/16 12:27:23;;;;;;;6.60;6.00;;;18.90;41.00;;;;;;5092475;28;20428;-54
2023/05/16 12:29:49;;;;;;;7.38;6.68;;;18.90;40.90;;;;;;5090942;28;20168;-54
2023/05/16 12:32:21;;;;;;;10.65;6.03;;;18.90;40.60;;;;;;5092378;28;20187;-52